createdAt,value
2018-02-10T00:00:01.642Z,4.60
2018-02-10T00:01:04.145Z,4.60
2018-02-10T00:02:07.429Z,4.60
2018-02-10T00:03:10.007Z,4.60
2018-02-10T00:04:12.501Z,4.60
2018-02-10T00:05:15.002Z,4.60
2018-02-10T00:06:17.496Z,4.70
2018-02-10T00:07:20.005Z,4.70
2018-02-10T00:08:22.502Z,4.70
2018-02-10T00:09:25.771Z,4.70
2018-02-10T00:10:28.263Z,4.60
2018-02-10T00:11:31.517Z,4.70
2018-02-10T00:12:34.038Z,4.70
2018-02-10T00:13:36.537Z,4.60
2018-02-10T00:14:39.146Z,4.60
2018-02-10T00:15:42.405Z,4.70
2018-02-10T00:16:44.906Z,4.70
2018-02-10T00:17:47.419Z,4.70
2018-02-10T00:18:49.913Z,4.70
2018-02-10T00:19:53.169Z,4.70
2018-02-10T00:20:55.670Z,4.70
2018-02-10T00:21:58.936Z,4.70
2018-02-10T00:23:01.448Z,4.60
2018-02-10T00:24:03.983Z,4.60
2018-02-10T00:25:07.262Z,4.70
2018-02-10T00:26:10.545Z,4.70
2018-02-10T00:27:13.801Z,4.70
2018-02-10T00:28:16.316Z,4.70
2018-02-10T00:29:18.822Z,4.70
2018-02-10T00:30:21.317Z,4.70
2018-02-10T00:31:24.581Z,4.70
2018-02-10T00:32:27.077Z,4.70
2018-02-10T00:33:29.643Z,4.70
2018-02-10T00:34:32.905Z,4.80
2018-02-10T00:35:35.402Z,4.70
2018-02-10T00:36:37.903Z,4.80
2018-02-10T00:37:40.417Z,4.70
2018-02-10T00:38:43.802Z,4.70
2018-02-10T00:39:47.062Z,4.80
2018-02-10T00:40:49.558Z,4.80
2018-02-10T00:41:52.817Z,4.80
2018-02-10T00:42:55.401Z,4.80
2018-02-10T00:43:58.690Z,4.70
2018-02-10T00:45:01.951Z,4.80
2018-02-10T00:46:04.446Z,4.70
2018-02-10T00:47:06.941Z,4.70
2018-02-10T00:48:09.442Z,4.70
2018-02-10T00:49:11.970Z,4.70
2018-02-10T00:50:14.465Z,4.70
2018-02-10T00:51:16.964Z,4.70
2018-02-10T00:52:20.227Z,4.70
2018-02-10T00:53:22.723Z,4.60
2018-02-10T00:54:25.250Z,4.60
2018-02-10T00:55:27.751Z,4.60
2018-02-10T00:56:30.245Z,4.70
2018-02-10T00:57:32.738Z,4.60
2018-02-10T00:58:35.234Z,4.60
2018-02-10T00:59:38.517Z,4.60
2018-02-10T01:00:41.778Z,4.60
2018-02-10T01:01:44.281Z,4.60
2018-02-10T01:02:46.776Z,4.60
2018-02-10T01:03:49.290Z,4.70
2018-02-10T01:04:53.317Z,4.60
2018-02-10T01:05:55.861Z,4.60
2018-02-10T01:06:59.120Z,4.70
2018-02-10T01:08:01.609Z,4.60
2018-02-10T01:09:04.865Z,4.60
2018-02-10T01:10:08.141Z,4.70
2018-02-10T01:11:10.656Z,4.60
2018-02-10T01:12:13.221Z,4.70
2018-02-10T01:13:15.774Z,4.70
2018-02-10T01:14:19.040Z,4.70
2018-02-10T01:15:21.557Z,4.70
2018-02-10T01:16:24.045Z,4.70
2018-02-10T01:17:26.538Z,4.70
2018-02-10T01:18:29.814Z,4.70
2018-02-10T01:19:32.410Z,4.70
2018-02-10T01:20:34.967Z,4.70
2018-02-10T01:21:38.238Z,4.70
2018-02-10T01:22:40.737Z,4.70
2018-02-10T01:23:43.229Z,4.70
2018-02-10T01:24:45.719Z,4.70
2018-02-10T01:25:49.023Z,4.70
2018-02-10T01:26:52.293Z,4.70
2018-02-10T01:27:54.812Z,4.70
2018-02-10T01:28:57.468Z,4.70
2018-02-10T01:29:59.977Z,4.70
2018-02-10T01:31:02.515Z,4.70
2018-02-10T01:32:05.087Z,4.70
2018-02-10T01:33:07.594Z,4.70
2018-02-10T01:34:10.105Z,4.70
2018-02-10T01:35:12.594Z,4.70
2018-02-10T01:36:15.189Z,4.70
2018-02-10T01:37:17.682Z,4.70
2018-02-10T01:38:20.177Z,4.70
2018-02-10T01:39:22.673Z,4.70
2018-02-10T01:40:25.167Z,4.70
2018-02-10T01:41:28.557Z,4.70
2018-02-10T01:42:31.054Z,4.70
2018-02-10T01:43:33.548Z,4.70
2018-02-10T01:44:36.037Z,4.70
2018-02-10T01:45:39.299Z,4.70
2018-02-10T01:46:41.839Z,4.70
2018-02-10T01:47:44.351Z,4.70
2018-02-10T01:48:47.609Z,4.70
2018-02-10T01:49:50.105Z,4.70
2018-02-10T01:50:53.370Z,4.70
2018-02-10T01:51:55.982Z,4.70
2018-02-10T01:52:58.481Z,4.70
2018-02-10T01:54:00.976Z,4.70
2018-02-10T01:55:03.472Z,4.70
2018-02-10T01:56:05.965Z,4.70
2018-02-10T01:57:08.469Z,4.70
2018-02-10T01:58:10.959Z,4.70
2018-02-10T01:59:13.449Z,4.70
2018-02-10T02:00:15.941Z,4.70
2018-02-10T02:01:18.441Z,4.70
2018-02-10T02:02:21.818Z,4.70
2018-02-10T02:03:25.094Z,4.70
2018-02-10T02:04:27.587Z,4.70
2018-02-10T02:05:30.841Z,4.70
2018-02-10T02:06:33.358Z,4.70
2018-02-10T02:07:35.909Z,4.70
2018-02-10T02:08:38.406Z,4.70
2018-02-10T02:09:40.906Z,4.70
2018-02-10T02:10:43.418Z,4.70
2018-02-10T02:11:45.914Z,4.70
2018-02-10T02:12:48.430Z,4.70
2018-02-10T02:13:50.958Z,4.70
2018-02-10T02:14:53.464Z,4.70
2018-02-10T02:15:55.981Z,4.70
2018-02-10T02:16:58.613Z,4.70
2018-02-10T02:18:01.149Z,4.70
2018-02-10T02:19:04.610Z,4.70
2018-02-10T02:20:07.139Z,4.70
2018-02-10T02:21:09.689Z,4.70
2018-02-10T02:22:12.193Z,4.70
2018-02-10T02:23:14.719Z,4.70
2018-02-10T02:24:17.213Z,4.70
2018-02-10T02:25:19.722Z,4.70
2018-02-10T02:26:22.990Z,4.70
2018-02-10T02:27:25.506Z,4.70
2018-02-10T02:28:28.061Z,4.70
2018-02-10T02:29:30.562Z,4.70
2018-02-10T02:30:33.060Z,4.70
2018-02-10T02:31:35.642Z,4.70
2018-02-10T02:32:38.938Z,4.70
2018-02-10T02:33:41.458Z,4.70
2018-02-10T02:34:43.945Z,4.70
2018-02-10T02:35:47.226Z,4.70
2018-02-10T02:36:50.495Z,4.70
2018-02-10T02:37:53.223Z,4.70
2018-02-10T02:38:55.751Z,4.70
2018-02-10T02:39:59.026Z,4.70
2018-02-10T02:41:02.495Z,4.70
2018-02-10T02:42:04.996Z,4.70
2018-02-10T02:43:08.271Z,4.70
2018-02-10T02:44:11.553Z,4.70
2018-02-10T02:45:15.713Z,4.70
2018-02-10T02:46:18.215Z,4.70
2018-02-10T02:47:21.484Z,4.70
2018-02-10T02:48:23.999Z,4.70
2018-02-10T02:49:26.561Z,4.70
2018-02-10T02:50:29.094Z,4.70
2018-02-10T02:51:32.527Z,4.70
2018-02-10T02:52:35.026Z,4.70
2018-02-10T02:53:37.522Z,4.70
2018-02-10T02:54:40.914Z,4.70
2018-02-10T02:55:44.177Z,4.80
2018-02-10T02:56:46.701Z,4.70
2018-02-10T02:57:49.189Z,4.80
2018-02-10T02:58:51.699Z,4.80
2018-02-10T02:59:54.217Z,4.80
2018-02-10T03:00:57.649Z,4.80
2018-02-10T03:02:00.162Z,4.80
2018-02-10T03:03:02.717Z,4.80
2018-02-10T03:04:05.244Z,4.80
2018-02-10T03:05:08.627Z,4.80
2018-02-10T03:06:11.899Z,4.80
2018-02-10T03:07:15.167Z,4.70
2018-02-10T03:08:17.688Z,4.80
2018-02-10T03:09:20.182Z,4.80
2018-02-10T03:10:22.704Z,4.80
2018-02-10T03:11:26.297Z,4.70
2018-02-10T03:12:28.802Z,4.80
2018-02-10T03:13:31.308Z,4.80
2018-02-10T03:14:34.570Z,4.80
2018-02-10T03:15:37.087Z,4.80
2018-02-10T03:16:39.586Z,4.80
2018-02-10T03:17:42.085Z,4.70
2018-02-10T03:18:45.346Z,4.80
2018-02-10T03:19:48.618Z,4.80
2018-02-10T03:20:51.135Z,4.80
2018-02-10T03:21:53.643Z,4.80
2018-02-10T03:22:56.390Z,4.80
2018-02-10T03:23:59.057Z,4.80
2018-02-10T03:25:01.554Z,4.80
2018-02-10T03:26:04.081Z,4.80
2018-02-10T03:27:06.643Z,4.80
2018-02-10T03:28:09.144Z,4.80
2018-02-10T03:29:11.643Z,4.80
2018-02-10T03:30:15.046Z,4.80
2018-02-10T03:31:17.585Z,4.80
2018-02-10T03:32:20.098Z,4.80
2018-02-10T03:33:22.605Z,4.80
2018-02-10T03:34:25.096Z,4.80
2018-02-10T03:35:28.382Z,4.80
2018-02-10T03:36:31.693Z,4.70
2018-02-10T03:37:34.189Z,4.80
2018-02-10T03:38:36.691Z,4.80
2018-02-10T03:39:39.961Z,4.70
2018-02-10T03:40:42.477Z,4.70
2018-02-10T03:41:45.014Z,4.80
2018-02-10T03:42:48.440Z,4.80
2018-02-10T03:43:50.942Z,4.70
2018-02-10T03:44:53.446Z,4.80
2018-02-10T03:45:56.014Z,4.70
2018-02-10T03:46:58.546Z,4.80
2018-02-10T03:48:01.115Z,4.70
2018-02-10T03:49:04.394Z,4.70
2018-02-10T03:50:07.658Z,4.80
2018-02-10T03:51:10.221Z,4.70
2018-02-10T03:52:12.825Z,4.80
2018-02-10T03:53:16.085Z,4.80
2018-02-10T03:54:18.581Z,4.80
2018-02-10T03:55:21.834Z,4.80
2018-02-10T03:56:24.409Z,4.80
2018-02-10T03:57:27.702Z,4.80
2018-02-10T03:58:30.962Z,4.80
2018-02-10T03:59:33.478Z,4.80
2018-02-10T04:00:35.979Z,4.80
2018-02-10T04:01:38.489Z,4.80
2018-02-10T04:02:41.793Z,4.80
2018-02-10T04:03:44.285Z,4.80
2018-02-10T04:04:46.798Z,4.80
2018-02-10T04:05:49.313Z,4.80
2018-02-10T04:06:51.814Z,4.80
2018-02-10T04:07:54.330Z,4.80
2018-02-10T04:08:56.824Z,4.80
2018-02-10T04:09:59.325Z,4.80
2018-02-10T04:11:02.591Z,4.80
2018-02-10T04:12:05.081Z,4.80
2018-02-10T04:13:08.391Z,4.80
2018-02-10T04:14:10.916Z,4.80
2018-02-10T04:15:14.189Z,4.80
2018-02-10T04:16:16.777Z,4.80
2018-02-10T04:17:20.038Z,4.80
2018-02-10T04:18:22.570Z,4.80
2018-02-10T04:19:25.067Z,4.80
2018-02-10T04:20:27.588Z,4.80
2018-02-10T04:21:30.089Z,4.80
2018-02-10T04:22:32.581Z,4.80
2018-02-10T04:23:35.874Z,4.80
2018-02-10T04:24:39.286Z,4.80
2018-02-10T04:25:41.829Z,4.80
2018-02-10T04:26:44.334Z,4.80
2018-02-10T04:27:46.982Z,4.80
2018-02-10T04:28:49.513Z,4.80
2018-02-10T04:29:52.770Z,4.80
2018-02-10T04:30:55.274Z,4.80
2018-02-10T04:31:58.559Z,4.80
2018-02-10T04:33:01.819Z,4.80
2018-02-10T04:34:05.118Z,4.80
2018-02-10T04:35:08.387Z,4.80
2018-02-10T04:36:10.883Z,4.80
2018-02-10T04:37:13.449Z,4.80
2018-02-10T04:38:15.945Z,4.80
2018-02-10T04:39:18.474Z,4.80
2018-02-10T04:40:20.966Z,4.80
2018-02-10T04:41:23.490Z,4.80
2018-02-10T04:42:26.757Z,4.80
2018-02-10T04:43:29.254Z,4.80
2018-02-10T04:44:31.810Z,4.80
2018-02-10T04:45:35.090Z,4.80
2018-02-10T04:46:39.177Z,4.80
2018-02-10T04:47:41.785Z,4.80
2018-02-10T04:48:44.281Z,4.80
2018-02-10T04:49:46.814Z,4.80
2018-02-10T04:50:49.313Z,4.80
2018-02-10T04:51:51.805Z,4.80
2018-02-10T04:52:54.294Z,4.80
2018-02-10T04:53:56.995Z,4.80
2018-02-10T04:54:59.573Z,4.80
2018-02-10T04:56:02.069Z,4.80
2018-02-10T04:57:04.661Z,4.80
2018-02-10T04:58:07.945Z,4.80
2018-02-10T04:59:11.202Z,4.80
2018-02-10T05:00:13.714Z,4.80
2018-02-10T05:01:16.270Z,4.80
2018-02-10T05:02:18.761Z,4.80
2018-02-10T05:03:21.261Z,4.80
2018-02-10T05:04:23.769Z,4.80
2018-02-10T05:05:26.298Z,4.80
2018-02-10T05:06:29.558Z,4.80
2018-02-10T05:07:32.053Z,4.80
2018-02-10T05:08:35.325Z,4.90
2018-02-10T05:09:37.826Z,4.80
2018-02-10T05:10:40.345Z,4.90
2018-02-10T05:11:42.860Z,4.80
2018-02-10T05:12:45.358Z,4.80
2018-02-10T05:13:47.853Z,4.90
2018-02-10T05:14:50.386Z,4.90
2018-02-10T05:15:52.914Z,4.90
2018-02-10T05:16:55.603Z,4.90
2018-02-10T05:17:58.245Z,4.90
2018-02-10T05:19:01.541Z,4.90
2018-02-10T05:20:04.050Z,4.80
2018-02-10T05:21:06.566Z,4.90
2018-02-10T05:22:09.063Z,4.90
2018-02-10T05:23:11.569Z,4.90
2018-02-10T05:24:14.065Z,4.90
2018-02-10T05:25:16.557Z,4.90
2018-02-10T05:26:19.157Z,4.90
2018-02-10T05:27:21.779Z,4.90
2018-02-10T05:28:24.368Z,4.90
2018-02-10T05:29:26.894Z,4.90
2018-02-10T05:30:29.403Z,4.90
2018-02-10T05:31:32.134Z,4.90
2018-02-10T05:32:34.623Z,4.90
2018-02-10T05:33:37.115Z,4.90
2018-02-10T05:34:39.817Z,4.90
2018-02-10T05:35:43.087Z,4.90
2018-02-10T05:36:46.382Z,4.90
2018-02-10T05:37:49.639Z,4.90
2018-02-10T05:38:52.946Z,4.90
2018-02-10T05:39:56.253Z,4.90
2018-02-10T05:40:58.761Z,4.90
2018-02-10T05:42:01.283Z,4.90
2018-02-10T05:43:03.784Z,4.90
2018-02-10T05:44:06.312Z,4.90
2018-02-10T05:45:08.817Z,4.90
2018-02-10T05:46:11.321Z,4.90
2018-02-10T05:47:15.021Z,4.90
2018-02-10T05:48:18.288Z,4.90
2018-02-10T05:49:20.814Z,4.90
2018-02-10T05:50:23.303Z,4.90
2018-02-10T05:51:25.805Z,4.90
2018-02-10T05:52:29.111Z,4.90
2018-02-10T05:53:31.618Z,4.90
2018-02-10T05:54:34.112Z,4.90
2018-02-10T05:55:37.390Z,4.90
2018-02-10T05:56:40.653Z,4.90
2018-02-10T05:57:43.953Z,4.90
2018-02-10T05:58:47.245Z,5.00
2018-02-10T05:59:50.509Z,4.90
2018-02-10T06:00:53.013Z,4.90
2018-02-10T06:01:55.510Z,4.90
2018-02-10T06:02:58.446Z,5.00
2018-02-10T06:04:00.941Z,4.90
2018-02-10T06:05:03.453Z,4.90
2018-02-10T06:06:06.732Z,4.90
2018-02-10T06:07:09.288Z,4.90
2018-02-10T06:08:11.804Z,4.90
2018-02-10T06:09:14.317Z,5.00
2018-02-10T06:10:16.822Z,4.90
2018-02-10T06:11:19.320Z,5.00
2018-02-10T06:12:21.838Z,4.90
2018-02-10T06:13:25.144Z,5.00
2018-02-10T06:14:27.654Z,5.00
2018-02-10T06:15:30.151Z,5.00
2018-02-10T06:16:33.415Z,5.00
2018-02-10T06:17:36.005Z,5.00
2018-02-10T06:18:39.305Z,5.00
2018-02-10T06:19:41.811Z,5.00
2018-02-10T06:20:44.329Z,5.00
2018-02-10T06:21:47.590Z,5.00
2018-02-10T06:22:50.893Z,5.00
2018-02-10T06:23:53.416Z,5.00
2018-02-10T06:24:55.906Z,5.00
2018-02-10T06:25:59.185Z,5.00
2018-02-10T06:27:01.682Z,5.00
2018-02-10T06:28:04.234Z,5.00
2018-02-10T06:29:07.519Z,5.00
2018-02-10T06:30:10.026Z,5.00
2018-02-10T06:31:12.525Z,5.00
2018-02-10T06:32:15.026Z,5.00
2018-02-10T06:33:17.513Z,5.00
2018-02-10T06:34:20.026Z,5.00
2018-02-10T06:35:22.525Z,5.00
2018-02-10T06:36:25.027Z,5.00
2018-02-10T06:37:27.541Z,5.00
2018-02-10T06:38:30.802Z,5.00
2018-02-10T06:39:34.085Z,5.00
2018-02-10T06:40:36.589Z,5.00
2018-02-10T06:41:39.085Z,5.00
2018-02-10T06:42:41.589Z,5.00
2018-02-10T06:43:44.851Z,5.00
2018-02-10T06:44:48.139Z,5.00
2018-02-10T06:45:50.734Z,5.00
2018-02-10T06:46:54.031Z,5.00
2018-02-10T06:47:56.543Z,5.00
2018-02-10T06:48:59.041Z,5.00
2018-02-10T06:50:02.326Z,5.00
2018-02-10T06:51:05.598Z,5.00
2018-02-10T06:52:08.868Z,5.00
2018-02-10T06:53:11.361Z,5.00
2018-02-10T06:54:14.624Z,5.10
2018-02-10T06:55:17.167Z,5.00
2018-02-10T06:56:19.681Z,5.00
2018-02-10T06:57:22.185Z,5.00
2018-02-10T06:58:24.681Z,5.00
2018-02-10T06:59:27.292Z,5.00
2018-02-10T07:00:29.846Z,5.00
2018-02-10T07:02:41.131Z,5.10
2018-02-10T07:03:44.556Z,5.10
2018-02-10T07:04:47.041Z,5.00
2018-02-10T07:05:49.557Z,5.10
2018-02-10T07:06:52.054Z,5.00
2018-02-10T07:07:54.549Z,5.10
2018-02-10T07:08:57.809Z,5.10
2018-02-10T07:10:00.310Z,5.10
2018-02-10T07:11:03.594Z,5.10
2018-02-10T07:12:06.867Z,5.10
2018-02-10T07:13:10.135Z,5.10
2018-02-10T07:14:12.737Z,5.10
2018-02-10T07:15:15.246Z,5.10
2018-02-10T07:16:19.074Z,5.10
2018-02-10T07:17:21.581Z,5.10
2018-02-10T07:18:24.089Z,5.10
2018-02-10T07:19:26.602Z,5.10
2018-02-10T07:20:29.101Z,5.10
2018-02-10T07:21:31.626Z,5.10
2018-02-10T07:22:34.161Z,5.10
2018-02-10T07:23:36.662Z,5.10
2018-02-10T07:24:39.180Z,5.10
2018-02-10T07:25:41.673Z,5.10
2018-02-10T07:26:44.962Z,5.10
2018-02-10T07:27:48.217Z,5.10
2018-02-10T07:28:50.734Z,5.10
2018-02-10T07:29:53.227Z,5.10
2018-02-10T07:30:55.725Z,5.20
2018-02-10T07:31:59.131Z,5.10
2018-02-10T07:33:02.409Z,5.20
2018-02-10T07:34:05.665Z,5.10
2018-02-10T07:35:08.166Z,5.10
2018-02-10T07:36:10.745Z,5.10
2018-02-10T07:37:13.275Z,5.10
2018-02-10T07:38:15.778Z,5.10
2018-02-10T07:39:18.279Z,5.10
2018-02-10T07:40:20.796Z,5.10
2018-02-10T07:41:23.313Z,5.20
2018-02-10T07:42:25.845Z,5.20
2018-02-10T07:43:28.363Z,5.20
2018-02-10T07:44:30.868Z,5.20
2018-02-10T07:45:33.365Z,5.20
2018-02-10T07:46:35.879Z,5.20
2018-02-10T07:47:39.163Z,5.20
2018-02-10T07:48:42.433Z,5.20
2018-02-10T07:49:45.721Z,5.30
2018-02-10T07:50:48.991Z,5.20
2018-02-10T07:51:51.489Z,5.20
2018-02-10T07:52:54.047Z,5.20
2018-02-10T07:53:57.304Z,5.20
2018-02-10T07:54:59.798Z,5.20
2018-02-10T07:56:02.295Z,5.20
2018-02-10T07:57:04.797Z,5.20
2018-02-10T07:58:07.318Z,5.30
2018-02-10T07:59:09.813Z,5.30
2018-02-10T08:00:12.302Z,5.30
2018-02-10T08:01:15.561Z,5.30
2018-02-10T08:02:18.058Z,5.30
2018-02-10T08:03:21.341Z,5.30
2018-02-10T08:04:24.609Z,5.40
2018-02-10T08:05:27.894Z,5.30
2018-02-10T08:06:30.415Z,5.30
2018-02-10T08:07:32.946Z,5.30
2018-02-10T08:08:35.470Z,5.30
2018-02-10T08:09:37.978Z,5.30
2018-02-10T08:10:41.252Z,5.30
2018-02-10T08:11:44.518Z,5.30
2018-02-10T08:12:47.014Z,5.30
2018-02-10T08:13:49.553Z,5.30
2018-02-10T08:14:52.629Z,5.40
2018-02-10T08:15:55.135Z,5.30
2018-02-10T08:16:57.650Z,5.30
2018-02-10T08:18:00.163Z,5.30
2018-02-10T08:19:02.690Z,5.30
2018-02-10T08:20:05.202Z,5.30
2018-02-10T08:21:07.704Z,5.30
2018-02-10T08:22:10.201Z,5.30
2018-02-10T08:23:13.464Z,5.40
2018-02-10T08:24:15.987Z,5.30
2018-02-10T08:25:18.484Z,5.40
2018-02-10T08:26:20.982Z,5.40
2018-02-10T08:27:24.242Z,5.40
2018-02-10T08:28:27.538Z,5.40
2018-02-10T08:29:30.832Z,5.50
2018-02-10T08:30:34.098Z,5.40
2018-02-10T08:31:36.601Z,5.40
2018-02-10T08:32:39.098Z,5.40
2018-02-10T08:33:41.603Z,5.50
2018-02-10T08:34:44.898Z,5.50
2018-02-10T08:35:48.162Z,5.50
2018-02-10T08:36:50.669Z,5.50
2018-02-10T08:37:53.172Z,5.50
2018-02-10T08:38:55.678Z,5.50
2018-02-10T08:39:58.959Z,5.50
2018-02-10T08:41:02.224Z,5.50
2018-02-10T08:42:05.489Z,5.50
2018-02-10T08:43:08.003Z,5.50
2018-02-10T08:44:10.507Z,5.50
2018-02-10T08:45:13.049Z,5.60
2018-02-10T08:46:15.558Z,5.60
2018-02-10T08:47:18.055Z,5.60
2018-02-10T08:48:21.317Z,5.60
2018-02-10T08:49:24.590Z,5.60
2018-02-10T08:50:27.891Z,5.60
2018-02-10T08:51:31.150Z,5.60
2018-02-10T08:52:35.409Z,5.60
2018-02-10T08:53:38.706Z,5.60
2018-02-10T08:54:41.224Z,5.60
2018-02-10T08:55:43.739Z,5.60
2018-02-10T08:56:46.331Z,5.60
2018-02-10T08:57:48.848Z,5.60
2018-02-10T08:58:51.362Z,5.60
2018-02-10T08:59:53.856Z,5.60
2018-02-10T09:00:57.166Z,5.70
2018-02-10T09:01:59.661Z,5.60
2018-02-10T09:03:02.170Z,5.60
2018-02-10T09:04:05.441Z,5.70
2018-02-10T09:05:08.713Z,5.70
2018-02-10T09:06:11.242Z,5.70
2018-02-10T09:07:13.750Z,5.70
2018-02-10T09:08:16.251Z,5.70
2018-02-10T09:09:18.762Z,5.70
2018-02-10T09:10:21.286Z,5.80
2018-02-10T09:11:23.811Z,5.70
2018-02-10T09:12:26.342Z,5.70
2018-02-10T09:13:28.849Z,5.80
2018-02-10T09:14:31.362Z,5.80
2018-02-10T09:15:33.906Z,5.80
2018-02-10T09:16:37.210Z,5.80
2018-02-10T09:17:39.725Z,5.70
2018-02-10T09:18:42.221Z,5.70
2018-02-10T09:19:45.486Z,5.70
2018-02-10T09:20:48.002Z,5.70
2018-02-10T09:21:50.531Z,5.70
2018-02-10T09:22:53.798Z,5.70
2018-02-10T09:23:56.521Z,5.70
2018-02-10T09:24:59.027Z,5.70
2018-02-10T09:26:01.522Z,5.70
2018-02-10T09:27:04.044Z,5.70
2018-02-10T09:28:06.542Z,5.70
2018-02-10T09:29:09.810Z,5.70
2018-02-10T09:30:12.309Z,5.70
2018-02-10T09:31:14.820Z,5.70
2018-02-10T09:32:17.341Z,5.70
2018-02-10T09:33:19.840Z,5.80
2018-02-10T09:34:22.342Z,5.80
2018-02-10T09:35:25.610Z,5.80
2018-02-10T09:36:28.116Z,5.80
2018-02-10T09:37:30.646Z,5.80
2018-02-10T09:38:33.163Z,5.80
2018-02-10T09:39:35.677Z,5.80
2018-02-10T09:40:38.182Z,5.80
2018-02-10T09:41:40.707Z,5.80
2018-02-10T09:42:43.225Z,5.80
2018-02-10T09:43:45.737Z,5.80
2018-02-10T09:44:48.230Z,5.80
2018-02-10T09:45:51.512Z,5.80
2018-02-10T09:46:54.019Z,5.80
2018-02-10T09:47:56.568Z,5.80
2018-02-10T09:48:59.066Z,5.80
2018-02-10T09:50:01.561Z,5.80
2018-02-10T09:51:04.854Z,5.80
2018-02-10T09:52:08.128Z,5.80
2018-02-10T09:53:11.441Z,5.80
2018-02-10T09:54:13.935Z,5.80
2018-02-10T09:55:16.433Z,5.80
2018-02-10T09:56:19.082Z,5.80
2018-02-10T09:57:21.578Z,5.80
2018-02-10T09:58:24.857Z,5.80
2018-02-10T09:59:28.120Z,5.90
2018-02-10T10:00:30.621Z,5.90
2018-02-10T10:01:33.118Z,5.90
2018-02-10T10:02:35.649Z,5.90
2018-02-10T10:03:38.491Z,5.90
2018-02-10T10:04:41.814Z,5.90
2018-02-10T10:05:44.346Z,5.90
2018-02-10T10:06:46.866Z,5.90
2018-02-10T10:07:49.520Z,5.90
2018-02-10T10:08:52.058Z,5.90
2018-02-10T10:09:55.318Z,5.90
2018-02-10T10:10:57.824Z,5.90
2018-02-10T10:12:01.082Z,5.90
2018-02-10T10:13:04.362Z,5.90
2018-02-10T10:14:06.957Z,5.90
2018-02-10T10:15:09.442Z,5.90
2018-02-10T10:16:11.938Z,5.90
2018-02-10T10:17:14.437Z,5.90
2018-02-10T10:18:17.734Z,5.90
2018-02-10T10:19:21.133Z,5.90
2018-02-10T10:20:23.634Z,5.90
2018-02-10T10:21:26.129Z,5.90
2018-02-10T10:22:29.397Z,5.90
2018-02-10T10:23:31.914Z,6.00
2018-02-10T10:24:34.774Z,6.00
2018-02-10T10:25:37.265Z,6.00
2018-02-10T10:26:39.753Z,6.00
2018-02-10T10:27:42.252Z,6.00
2018-02-10T10:28:45.574Z,6.00
2018-02-10T10:29:48.102Z,6.00
2018-02-10T10:30:51.364Z,6.00
2018-02-10T10:31:53.878Z,6.00
2018-02-10T10:32:56.387Z,6.00
2018-02-10T10:33:58.886Z,6.00
2018-02-10T10:35:02.266Z,6.00
2018-02-10T10:36:04.781Z,6.00
2018-02-10T10:37:07.289Z,6.00
2018-02-10T10:38:09.785Z,6.00
2018-02-10T10:39:12.278Z,6.00
2018-02-10T10:40:14.809Z,6.00
2018-02-10T10:41:17.387Z,6.10
2018-02-10T10:42:19.888Z,6.10
2018-02-10T10:43:22.386Z,6.10
2018-02-10T10:44:24.880Z,6.10
2018-02-10T10:45:27.445Z,6.10
2018-02-10T10:46:29.945Z,6.10
2018-02-10T10:47:32.434Z,6.00
2018-02-10T10:48:34.921Z,6.10
2018-02-10T10:49:38.190Z,6.10
2018-02-10T10:50:41.093Z,6.10
2018-02-10T10:51:43.590Z,6.00
2018-02-10T10:52:46.128Z,6.10
2018-02-10T10:53:48.629Z,6.00
2018-02-10T10:54:51.504Z,6.10
2018-02-10T10:55:54.015Z,6.10
2018-02-10T10:56:57.286Z,6.10
2018-02-10T10:57:59.874Z,6.10
2018-02-10T10:59:03.129Z,6.10
2018-02-10T11:00:05.717Z,6.10
2018-02-10T11:01:09.029Z,6.10
2018-02-10T11:02:11.595Z,6.10
2018-02-10T11:03:14.145Z,6.10
2018-02-10T11:04:17.605Z,6.10
2018-02-10T11:05:21.858Z,6.10
2018-02-10T11:06:24.393Z,6.10
2018-02-10T11:07:27.659Z,6.10
2018-02-10T11:08:30.250Z,6.10
2018-02-10T11:09:32.750Z,6.10
2018-02-10T11:10:35.253Z,6.10
2018-02-10T11:11:39.938Z,6.10
2018-02-10T11:12:42.431Z,6.10
2018-02-10T11:13:45.022Z,6.20
2018-02-10T11:14:48.306Z,6.20
2018-02-10T11:15:51.572Z,6.20
2018-02-10T11:16:54.090Z,6.20
2018-02-10T11:17:56.597Z,6.20
2018-02-10T11:19:00.616Z,6.20
2018-02-10T11:20:03.893Z,6.20
2018-02-10T11:21:07.193Z,6.20
2018-02-10T11:22:10.713Z,6.20
2018-02-10T11:23:13.207Z,6.20
2018-02-10T11:24:15.701Z,6.20
2018-02-10T11:25:19.000Z,6.20
2018-02-10T11:26:21.502Z,6.20
2018-02-10T11:27:24.181Z,6.20
2018-02-10T11:28:26.818Z,6.20
2018-02-10T11:29:29.321Z,6.20
2018-02-10T11:30:31.813Z,6.20
2018-02-10T11:31:35.097Z,6.20
2018-02-10T11:32:38.732Z,6.20
2018-02-10T11:33:41.221Z,6.20
2018-02-10T11:34:43.718Z,6.20
2018-02-10T11:35:46.996Z,6.20
2018-02-10T11:36:49.493Z,6.20
2018-02-10T11:37:52.515Z,6.20
2018-02-10T11:38:56.761Z,6.20
2018-02-10T11:40:00.139Z,6.20
2018-02-10T11:41:02.610Z,6.20
2018-02-10T11:42:05.877Z,6.20
2018-02-10T11:43:09.305Z,6.20
2018-02-10T11:44:12.030Z,6.20
2018-02-10T11:45:15.461Z,6.20
2018-02-10T11:46:17.950Z,6.20
2018-02-10T11:47:20.483Z,6.20
2018-02-10T11:48:22.996Z,6.20
2018-02-10T11:49:25.492Z,6.20
2018-02-10T11:50:28.749Z,6.20
2018-02-10T11:51:31.241Z,6.20
2018-02-10T11:52:34.518Z,6.20
2018-02-10T11:53:37.886Z,6.20
2018-02-10T11:54:40.378Z,6.20
2018-02-10T11:55:43.633Z,6.20
2018-02-10T11:56:46.141Z,6.20
2018-02-10T11:57:48.640Z,6.20
2018-02-10T11:58:51.172Z,6.20
2018-02-10T11:59:53.661Z,6.20
2018-02-10T12:00:56.201Z,6.20
2018-02-10T12:01:58.694Z,6.20
2018-02-10T12:03:01.197Z,6.20
2018-02-10T12:04:03.994Z,6.20
2018-02-10T12:05:07.257Z,6.20
2018-02-10T12:06:09.973Z,6.20
2018-02-10T12:07:12.478Z,6.20
2018-02-10T12:08:14.976Z,6.20
2018-02-10T12:09:18.257Z,6.20
2018-02-10T12:10:21.519Z,6.20
2018-02-10T12:11:24.038Z,6.20
2018-02-10T12:12:26.563Z,6.30
2018-02-10T12:13:29.851Z,6.20
2018-02-10T12:14:33.350Z,6.30
2018-02-10T12:15:35.850Z,6.20
2018-02-10T12:16:38.370Z,6.30
2018-02-10T12:17:41.629Z,6.20
2018-02-10T12:18:44.117Z,6.20
2018-02-10T12:19:48.429Z,6.20
2018-02-10T12:20:51.686Z,6.20
2018-02-10T12:21:54.198Z,6.20
2018-02-10T12:22:56.690Z,6.20
2018-02-10T12:23:59.200Z,6.20
2018-02-10T12:25:02.612Z,6.20
2018-02-10T12:26:05.106Z,6.20
2018-02-10T12:27:07.605Z,6.20
2018-02-10T12:28:10.117Z,6.20
2018-02-10T12:29:12.645Z,6.20
2018-02-10T12:30:15.955Z,6.30
2018-02-10T12:31:18.449Z,6.20
2018-02-10T12:32:20.951Z,6.30
2018-02-10T12:33:23.455Z,6.20
2018-02-10T12:34:25.953Z,6.20
2018-02-10T12:35:28.766Z,6.20
2018-02-10T12:36:32.062Z,6.20
2018-02-10T12:37:34.680Z,6.20
2018-02-10T12:38:37.198Z,6.20
2018-02-10T12:39:39.692Z,6.30
2018-02-10T12:40:42.206Z,6.30
2018-02-10T12:41:45.469Z,6.30
2018-02-10T12:42:47.963Z,6.30
2018-02-10T12:43:51.224Z,6.30
2018-02-10T12:44:53.729Z,6.30
2018-02-10T12:45:56.251Z,6.30
2018-02-10T12:46:59.535Z,6.30
2018-02-10T12:48:09.538Z,6.30
2018-02-10T12:49:17.602Z,6.30
2018-02-10T12:50:20.867Z,6.30
2018-02-10T12:51:23.387Z,6.30
2018-02-10T12:52:25.899Z,6.30
2018-02-10T12:53:29.225Z,6.30
2018-02-10T12:54:31.740Z,6.30
2018-02-10T12:55:34.253Z,6.30
2018-02-10T12:56:36.834Z,6.30
2018-02-10T12:57:39.351Z,6.30
2018-02-10T12:58:42.606Z,6.30
2018-02-10T12:59:45.105Z,6.30
2018-02-10T13:00:48.389Z,6.30
2018-02-10T13:01:51.674Z,6.40
2018-02-10T13:02:54.938Z,6.40
2018-02-10T13:03:57.438Z,6.40
2018-02-10T13:04:59.946Z,6.40
2018-02-10T13:06:02.495Z,6.40
2018-02-10T13:07:05.015Z,6.40
2018-02-10T13:08:08.278Z,6.40
2018-02-10T13:09:10.770Z,6.40
2018-02-10T13:10:13.285Z,6.40
2018-02-10T13:11:15.785Z,6.40
2018-02-10T13:12:19.186Z,6.40
2018-02-10T13:13:22.442Z,6.40
2018-02-10T13:14:24.947Z,6.40
2018-02-10T13:15:27.454Z,6.40
2018-02-10T13:16:31.590Z,6.40
2018-02-10T13:17:34.884Z,6.40
2018-02-10T13:18:38.153Z,6.40
2018-02-10T13:19:40.686Z,6.40
2018-02-10T13:20:44.271Z,6.40
2018-02-10T13:21:47.477Z,6.40
2018-02-10T13:22:50.726Z,6.40
2018-02-10T13:23:53.245Z,6.40
2018-02-10T13:24:56.509Z,6.40
2018-02-10T13:25:59.005Z,6.40
2018-02-10T13:27:02.271Z,6.50
2018-02-10T13:28:05.567Z,6.50
2018-02-10T13:29:08.934Z,6.60
2018-02-10T13:30:11.429Z,6.50
2018-02-10T13:31:13.938Z,6.60
2018-02-10T13:32:16.434Z,6.60
2018-02-10T13:33:18.965Z,6.60
2018-02-10T13:34:21.450Z,6.60
2018-02-10T13:35:23.955Z,6.60
2018-02-10T13:36:26.461Z,6.70
2018-02-10T13:37:28.957Z,6.70
2018-02-10T13:38:31.490Z,6.70
2018-02-10T13:39:33.988Z,6.70
2018-02-10T13:40:36.493Z,6.70
2018-02-10T13:41:38.989Z,6.70
2018-02-10T13:42:41.666Z,6.70
2018-02-10T13:43:44.145Z,6.70
2018-02-10T13:44:46.670Z,6.70
2018-02-10T13:45:49.201Z,6.70
2018-02-10T13:46:51.889Z,6.70
2018-02-10T13:47:54.377Z,6.70
2018-02-10T13:48:56.889Z,6.70
2018-02-10T13:49:59.383Z,6.70
2018-02-10T13:51:03.025Z,6.70
2018-02-10T13:52:05.554Z,6.70
2018-02-10T13:53:08.078Z,6.60
2018-02-10T13:54:11.370Z,6.60
2018-02-10T13:55:14.638Z,6.60
2018-02-10T13:56:17.147Z,6.60